createdAt,value
2018-05-17T00:00:41.283Z,67.86
2018-05-17T00:03:12.038Z,67.66
2018-05-17T00:05:42.365Z,67.24
2018-05-17T00:08:12.283Z,66.47
2018-05-17T00:10:41.772Z,66.63
2018-05-17T00:13:11.917Z,66.43
2018-05-17T00:15:46.438Z,66.38
2018-05-17T00:18:19.831Z,65.87
2018-05-17T00:20:49.145Z,65.45
2018-05-17T00:23:18.330Z,65.08
2018-05-17T00:25:53.368Z,64.91
2018-05-17T00:28:22.996Z,64.46
2018-05-17T00:30:52.155Z,64.60
2018-05-17T00:33:23.010Z,64.94
2018-05-17T00:35:52.755Z,64.60
2018-05-17T00:38:21.818Z,64.09
2018-05-17T00:43:27.085Z,63.50
2018-05-17T00:45:56.077Z,63.43
2018-05-17T00:48:26.089Z,63.24
2018-05-17T00:50:56.178Z,62.78
2018-05-17T00:53:33.190Z,62.34
2018-05-17T00:56:03.171Z,61.64
2018-05-17T00:58:32.639Z,61.50
2018-05-17T01:01:01.608Z,61.65
2018-05-17T01:03:30.497Z,61.63
2018-05-17T01:05:59.696Z,60.99
2018-05-17T01:08:29.717Z,60.65
2018-05-17T01:10:58.707Z,60.40
2018-05-17T01:13:27.658Z,60.72
2018-05-17T01:15:57.002Z,60.89
2018-05-17T01:18:26.510Z,60.93
2018-05-17T01:20:56.227Z,61.07
2018-05-17T01:23:25.221Z,61.67
2018-05-17T01:25:54.310Z,61.89
2018-05-17T01:28:24.125Z,61.79
2018-05-17T01:30:53.266Z,61.82
2018-05-17T01:33:23.244Z,61.12
2018-05-17T01:35:52.231Z,61.22
2018-05-17T01:38:26.246Z,61.11
2018-05-17T01:40:55.144Z,60.43
2018-05-17T01:43:24.071Z,60.02
2018-05-17T01:45:54.047Z,59.62
2018-05-17T01:48:23.951Z,59.31
2018-05-17T01:50:53.964Z,59.31
2018-05-17T01:56:00.156Z,60.19
2018-05-17T01:58:29.103Z,59.59
2018-05-17T02:00:58.262Z,59.08
2018-05-17T02:03:28.308Z,59.07
2018-05-17T02:05:57.615Z,58.42
2018-05-17T02:08:27.793Z,57.82
2018-05-17T02:10:57.813Z,57.73
2018-05-17T02:13:26.703Z,56.46
2018-05-17T02:15:55.585Z,56.29
2018-05-17T02:18:24.699Z,56.20
2018-05-17T02:20:54.513Z,55.82
2018-05-17T02:23:23.555Z,55.79
2018-05-17T02:25:52.702Z,55.39
2018-05-17T02:28:22.563Z,55.32
2018-05-17T02:30:53.234Z,55.26
2018-05-17T02:35:57.791Z,55.31
2018-05-17T02:38:27.228Z,54.77
2018-05-17T02:40:57.421Z,54.46
2018-05-17T02:43:26.311Z,54.05
2018-05-17T02:45:55.303Z,53.65
2018-05-17T02:48:25.277Z,53.60
2018-05-17T02:50:54.282Z,53.54
2018-05-17T02:53:24.232Z,53.25
2018-05-17T02:55:54.254Z,53.14
2018-05-17T02:58:23.145Z,52.64
2018-05-17T03:00:52.032Z,52.54
2018-05-17T03:05:56.815Z,51.51
2018-05-17T03:08:25.770Z,50.94
2018-05-17T03:10:55.656Z,50.07
2018-05-17T03:13:25.609Z,49.58
2018-05-17T03:15:55.084Z,48.91
2018-05-17T03:18:25.025Z,47.83
2018-05-17T03:20:54.120Z,46.59
2018-05-17T03:23:23.117Z,46.17
2018-05-17T03:25:54.334Z,44.98
2018-05-17T03:28:23.328Z,45.24
2018-05-17T03:30:53.373Z,46.50
2018-05-17T03:33:22.371Z,47.62
2018-05-17T03:35:51.311Z,46.76
2018-05-17T03:38:21.180Z,45.54
2018-05-17T03:40:50.274Z,45.14
2018-05-17T03:43:19.575Z,44.65
2018-05-17T03:45:48.568Z,43.53
2018-05-17T03:48:18.792Z,42.72
2018-05-17T03:50:49.642Z,40.86
2018-05-17T03:53:18.625Z,39.93
2018-05-17T03:55:49.364Z,39.27
2018-05-17T03:58:18.282Z,39.12
2018-05-17T04:00:59.229Z,40.17
2018-05-17T04:03:39.881Z,42.29
2018-05-17T04:06:21.318Z,43.71
2018-05-17T04:08:51.034Z,45.52
2018-05-17T04:11:20.083Z,46.58
2018-05-17T04:13:50.731Z,47.19
2018-05-17T04:16:20.837Z,48.46
2018-05-17T04:18:49.674Z,48.95
2018-05-17T04:21:18.621Z,49.00
2018-05-17T04:23:47.582Z,48.55
2018-05-17T04:26:16.817Z,48.25
2018-05-17T04:28:47.432Z,46.69
2018-05-17T04:31:16.445Z,44.36
2018-05-17T04:33:45.536Z,41.88
2018-05-17T04:36:17.094Z,41.00
2018-05-17T04:38:46.163Z,39.56
2018-05-17T04:41:16.210Z,39.01
2018-05-17T04:43:45.305Z,39.60
2018-05-17T04:46:15.219Z,38.95
2018-05-17T04:48:44.092Z,38.36
2018-05-17T04:51:15.971Z,39.27
2018-05-17T04:53:45.936Z,38.43
2018-05-17T04:56:15.803Z,38.00
2018-05-17T04:58:46.538Z,36.79
2018-05-17T05:01:16.400Z,34.91
2018-05-17T05:03:45.556Z,34.90
2018-05-17T05:06:14.544Z,34.42
2018-05-17T05:08:43.888Z,32.63
2018-05-17T05:11:13.213Z,31.94
2018-05-17T05:13:43.162Z,30.97
2018-05-17T05:16:12.163Z,30.27
2018-05-17T05:18:41.472Z,32.51
2018-05-17T05:21:11.411Z,31.44
2018-05-17T05:23:42.134Z,33.62
2018-05-17T05:26:11.234Z,32.74
2018-05-17T05:28:40.208Z,34.05
2018-05-17T05:31:09.199Z,34.72
2018-05-17T05:33:38.397Z,33.37
2018-05-17T05:36:08.183Z,31.92
2018-05-17T05:38:37.463Z,31.00
2018-05-17T05:41:06.611Z,30.24
2018-05-17T05:43:35.703Z,28.05
2018-05-17T05:46:04.902Z,27.84
2018-05-17T05:48:34.346Z,29.74
2018-05-17T05:51:03.382Z,28.90
2018-05-17T05:53:32.396Z,29.89
2018-05-17T05:56:01.503Z,29.54
2018-05-17T05:58:32.836Z,28.69
2018-05-17T06:01:01.846Z,28.34
2018-05-17T06:03:31.652Z,29.00
2018-05-17T06:06:03.307Z,29.08
2018-05-17T06:08:33.943Z,29.28
2018-05-17T06:11:03.038Z,29.25
2018-05-17T06:13:34.885Z,31.62
2018-05-17T06:16:03.996Z,32.91
2018-05-17T06:18:33.914Z,32.60
2018-05-17T06:21:04.589Z,35.73
2018-05-17T06:23:33.641Z,38.22
2018-05-17T06:26:07.312Z,43.44
2018-05-17T06:28:36.174Z,42.91
2018-05-17T06:31:05.324Z,41.81
2018-05-17T06:33:34.428Z,39.91
2018-05-17T06:36:03.935Z,39.10
2018-05-17T06:38:33.754Z,37.96
2018-05-17T06:41:02.689Z,38.64
2018-05-17T06:43:32.454Z,41.73
2018-05-17T06:46:01.723Z,41.86
2018-05-17T06:48:32.287Z,41.23
2018-05-17T06:51:01.590Z,44.17
2018-05-17T06:53:31.853Z,46.95
2018-05-17T06:58:34.611Z,51.33
2018-05-17T07:01:03.718Z,51.34
2018-05-17T07:03:32.596Z,52.62
2018-05-17T07:06:01.528Z,50.82
2018-05-17T07:08:30.483Z,52.04
2018-05-17T07:13:34.201Z,52.54
2018-05-17T07:16:03.100Z,51.64
2018-05-17T07:18:32.319Z,50.46
2018-05-17T07:21:02.097Z,49.82
2018-05-17T07:23:31.037Z,51.29
2018-05-17T07:25:59.995Z,53.09
2018-05-17T07:28:29.903Z,51.73
2018-05-17T07:30:58.752Z,50.24
2018-05-17T07:36:03.051Z,49.44
2018-05-17T07:38:31.936Z,49.92
2018-05-17T07:41:02.659Z,51.91
2018-05-17T07:43:31.700Z,54.47
2018-05-17T07:46:01.580Z,54.07
2018-05-17T07:48:30.635Z,53.88
2018-05-17T07:50:59.604Z,54.30
2018-05-17T07:53:32.984Z,55.02
2018-05-17T07:56:01.850Z,55.51
2018-05-17T07:58:30.950Z,55.92
2018-05-17T08:01:00.049Z,55.83
2018-05-17T08:03:29.965Z,56.44
2018-05-17T08:05:58.788Z,56.10
2018-05-17T08:11:02.276Z,57.65
2018-05-17T08:13:31.365Z,58.05
2018-05-17T08:16:01.649Z,57.29
2018-05-17T08:18:30.582Z,56.25
2018-05-17T08:21:01.149Z,56.22
2018-05-17T08:23:31.113Z,55.88
2018-05-17T08:26:00.332Z,57.06
2018-05-17T08:28:29.349Z,57.00
2018-05-17T08:30:59.389Z,58.97
2018-05-17T08:33:28.341Z,58.91
2018-05-17T08:35:57.387Z,59.99
2018-05-17T08:41:01.508Z,61.06
2018-05-17T08:43:30.459Z,60.25
2018-05-17T08:46:00.615Z,60.55
2018-05-17T08:48:29.471Z,61.17
2018-05-17T08:50:58.466Z,62.02
2018-05-17T08:56:06.293Z,63.13
2018-05-17T08:58:35.331Z,64.40
2018-05-17T09:01:05.195Z,66.00
2018-05-17T09:03:34.396Z,66.79
2018-05-17T09:06:04.207Z,67.40
2018-05-17T09:08:36.276Z,69.91
2018-05-17T09:11:05.172Z,71.36
2018-05-17T09:13:34.215Z,71.54
2018-05-17T09:16:03.434Z,73.01
2018-05-17T09:18:32.357Z,72.41
2018-05-17T09:21:02.532Z,73.65
2018-05-17T09:23:35.068Z,71.92
2018-05-17T09:26:04.049Z,70.78
2018-05-17T09:28:33.757Z,71.56
2018-05-17T09:33:39.616Z,70.20
2018-05-17T09:36:08.623Z,70.07
2018-05-17T09:38:38.544Z,71.10
2018-05-17T09:41:08.508Z,69.04
2018-05-17T09:43:37.500Z,68.41
2018-05-17T09:46:07.414Z,69.82
2018-05-17T09:48:37.687Z,68.37
2018-05-17T09:51:06.727Z,68.23
2018-05-17T09:53:35.672Z,66.61
2018-05-17T09:56:05.492Z,66.41
2018-05-17T09:58:35.103Z,66.11
2018-05-17T10:01:04.913Z,67.11
2018-05-17T10:03:34.012Z,65.76
2018-05-17T10:06:02.888Z,65.09
2018-05-17T10:08:32.666Z,63.47
2018-05-17T10:11:01.613Z,62.61
2018-05-17T10:13:30.602Z,61.42
2018-05-17T10:15:59.576Z,61.44
2018-05-17T10:18:28.695Z,62.61
2018-05-17T10:20:57.727Z,62.54
2018-05-17T10:23:27.607Z,63.90
2018-05-17T10:25:57.108Z,63.29
2018-05-17T10:28:26.120Z,65.50
2018-05-17T10:30:55.826Z,65.49
2018-05-17T10:33:24.908Z,66.62
2018-05-17T10:35:54.834Z,66.00
2018-05-17T10:38:24.676Z,64.89
2018-05-17T10:40:53.741Z,66.32
2018-05-17T10:43:24.354Z,67.20
2018-05-17T10:45:56.196Z,67.37
2018-05-17T10:48:25.120Z,69.04
2018-05-17T10:50:54.119Z,71.19
2018-05-17T10:53:24.199Z,74.74
2018-05-17T10:55:54.148Z,74.88
2018-05-17T10:58:24.274Z,77.01
2018-05-17T11:00:53.166Z,77.23
2018-05-17T11:03:22.164Z,77.98
2018-05-17T11:05:54.530Z,78.19
2018-05-17T11:08:23.464Z,80.56
2018-05-17T11:10:52.412Z,80.54
2018-05-17T11:13:24.588Z,81.62
2018-05-17T11:15:53.833Z,81.99
2018-05-17T11:18:23.536Z,81.78
2018-05-17T11:20:57.001Z,82.13
2018-05-17T11:23:26.497Z,81.48
2018-05-17T11:25:55.559Z,80.34
2018-05-17T11:28:24.669Z,80.59
2018-05-17T11:30:54.587Z,80.87
2018-05-17T11:33:23.715Z,80.59
2018-05-17T11:35:58.137Z,82.38
2018-05-17T11:38:27.027Z,81.87
2018-05-17T11:40:57.129Z,81.81
2018-05-17T11:43:29.207Z,81.89
2018-05-17T11:45:59.427Z,77.94
2018-05-17T11:48:28.741Z,76.73
2018-05-17T11:50:58.548Z,74.91
2018-05-17T11:53:27.503Z,69.56
2018-05-17T11:55:56.571Z,69.08
2018-05-17T11:58:28.075Z,69.40
2018-05-17T12:00:57.022Z,68.77
2018-05-17T12:03:25.972Z,68.35
2018-05-17T12:05:55.791Z,70.55
2018-05-17T12:08:24.775Z,69.51
2018-05-17T12:10:53.745Z,69.48
2018-05-17T12:13:22.876Z,70.35
2018-05-17T12:15:51.867Z,70.17
2018-05-17T12:18:21.066Z,69.97
2018-05-17T12:20:50.982Z,69.68
2018-05-17T12:23:19.975Z,69.40
2018-05-17T12:25:48.974Z,70.45
2018-05-17T12:28:18.476Z,73.07
2018-05-17T12:30:48.290Z,75.10
2018-05-17T12:33:17.282Z,72.21
2018-05-17T12:35:49.453Z,72.10
2018-05-17T12:38:19.446Z,73.37
2018-05-17T12:40:53.074Z,74.47
2018-05-17T12:43:22.223Z,74.52
2018-05-17T12:45:51.165Z,74.28
2018-05-17T12:48:21.185Z,74.05
2018-05-17T12:50:50.296Z,74.39
2018-05-17T12:53:19.274Z,76.20
2018-05-17T12:55:49.246Z,76.31
2018-05-17T12:58:18.133Z,76.15
2018-05-17T13:00:47.176Z,78.00
2018-05-17T13:03:17.032Z,78.27
2018-05-17T13:05:45.982Z,78.02
2018-05-17T13:08:15.078Z,76.70
2018-05-17T13:10:44.178Z,75.29
2018-05-17T13:13:13.966Z,75.23
2018-05-17T13:15:43.952Z,74.00
2018-05-17T13:18:12.902Z,72.93
2018-05-17T13:20:42.710Z,73.42
2018-05-17T13:23:11.811Z,72.62
2018-05-17T13:25:42.753Z,72.19
2018-05-17T13:28:12.257Z,71.79
2018-05-17T13:30:41.703Z,72.04
2018-05-17T13:33:12.630Z,72.86
2018-05-17T13:35:41.806Z,73.80
2018-05-17T13:38:10.791Z,73.93
2018-05-17T13:40:42.554Z,73.28
2018-05-17T13:43:11.585Z,73.33
2018-05-17T13:45:41.398Z,72.50
2018-05-17T13:48:11.429Z,70.06
2018-05-17T13:50:41.397Z,73.23
2018-05-17T13:53:10.653Z,74.85
2018-05-17T13:55:40.720Z,77.94
2018-05-17T13:58:09.656Z,78.63
2018-05-17T14:00:39.728Z,79.25
2018-05-17T14:03:09.275Z,79.99
2018-05-17T14:05:38.450Z,79.72
2018-05-17T14:08:08.605Z,80.19
2018-05-17T14:10:39.279Z,81.17
2018-05-17T14:13:11.049Z,81.14
2018-05-17T14:15:45.968Z,83.04
2018-05-17T14:18:16.818Z,83.49
2018-05-17T14:20:45.819Z,82.71
2018-05-17T14:23:15.076Z,81.67
2018-05-17T14:25:44.009Z,80.08
2018-05-17T14:28:12.998Z,78.50
2018-05-17T14:30:42.046Z,78.59
2018-05-17T14:33:11.001Z,78.66
2018-05-17T14:35:40.088Z,78.55
2018-05-17T14:38:10.002Z,77.91
2018-05-17T14:40:39.034Z,76.80
2018-05-17T14:43:08.261Z,75.10
2018-05-17T14:45:37.551Z,74.87
2018-05-17T14:48:07.528Z,76.48
2018-05-17T14:50:36.618Z,78.73
2018-05-17T14:53:06.277Z,78.99
2018-05-17T14:55:35.265Z,77.90
2018-05-17T14:58:04.152Z,76.90
2018-05-17T15:00:33.241Z,75.41
2018-05-17T15:03:02.197Z,75.96
2018-05-17T15:05:31.192Z,76.23
2018-05-17T15:08:01.114Z,76.56
2018-05-17T15:10:30.288Z,77.83
2018-05-17T15:13:00.119Z,78.71
2018-05-17T15:15:30.035Z,80.62
2018-05-17T15:17:59.029Z,79.05
2018-05-17T15:20:28.680Z,78.56
2018-05-17T15:22:57.850Z,79.72
2018-05-17T15:25:26.830Z,82.47
2018-05-17T15:27:56.109Z,83.83
2018-05-17T15:30:26.816Z,83.94
2018-05-17T15:32:55.635Z,83.76
2018-05-17T15:35:24.526Z,83.65
2018-05-17T15:40:28.505Z,85.01
2018-05-17T15:42:57.359Z,84.79
2018-05-17T15:45:26.366Z,84.09
2018-05-17T15:47:56.278Z,84.69
2018-05-17T15:50:25.259Z,85.35
2018-05-17T15:52:54.162Z,86.34
2018-05-17T15:55:25.002Z,86.82
2018-05-17T15:57:56.964Z,88.31
2018-05-17T16:00:26.750Z,89.83
2018-05-17T16:02:56.701Z,90.91
2018-05-17T16:05:25.889Z,91.37
2018-05-17T16:07:54.988Z,91.02
2018-05-17T16:10:24.843Z,92.39
2018-05-17T16:12:54.003Z,93.76
2018-05-17T16:15:23.060Z,94.77
2018-05-17T16:17:52.091Z,95.20
2018-05-17T16:20:22.014Z,95.51
2018-05-17T16:22:52.442Z,96.40
2018-05-17T16:25:21.362Z,97.98
2018-05-17T16:27:51.236Z,98.96
2018-05-17T16:30:20.486Z,99.09
2018-05-17T16:32:51.280Z,98.37
2018-05-17T16:35:22.477Z,98.43
2018-05-17T16:37:51.372Z,98.97
2018-05-17T16:40:21.156Z,99.07
2018-05-17T16:42:50.414Z,98.49
2018-05-17T16:45:20.205Z,97.63
2018-05-17T16:47:49.281Z,97.34
2018-05-17T16:50:18.441Z,97.08
2018-05-17T16:52:48.564Z,96.76
2018-05-17T16:55:17.452Z,97.05
2018-05-17T16:57:51.975Z,97.34
2018-05-17T17:00:21.317Z,97.16
2018-05-17T17:02:50.416Z,97.07
2018-05-17T17:05:19.521Z,96.97
2018-05-17T17:07:49.728Z,96.82
2018-05-17T17:10:18.891Z,96.57
2018-05-17T17:12:48.297Z,96.25
2018-05-17T17:15:17.489Z,95.81
2018-05-17T17:17:46.899Z,95.75
2018-05-17T17:20:16.676Z,95.83
2018-05-17T17:22:45.965Z,95.56
2018-05-17T17:25:15.804Z,96.02
2018-05-17T17:27:46.651Z,96.57
2018-05-17T17:30:15.600Z,97.65
2018-05-17T17:32:45.717Z,97.94
2018-05-17T17:35:19.914Z,97.79
2018-05-17T17:37:49.654Z,97.51
2018-05-17T17:40:18.639Z,97.66
2018-05-17T17:42:49.994Z,97.76
2018-05-17T17:45:18.836Z,98.18
2018-05-17T17:47:47.896Z,98.37
2018-05-17T17:50:17.599Z,98.61
2018-05-17T17:52:46.786Z,100.00
2018-05-17T17:55:15.774Z,100.00
2018-05-17T17:57:46.512Z,99.71
2018-05-17T18:00:15.608Z,99.07
2018-05-17T18:02:45.366Z,97.47
2018-05-17T18:05:16.085Z,95.09
2018-05-17T18:07:46.157Z,93.90
2018-05-17T18:10:15.082Z,92.82
2018-05-17T18:12:47.494Z,92.39
2018-05-17T18:15:16.617Z,92.74
2018-05-17T18:17:45.512Z,92.23
2018-05-17T18:20:14.665Z,93.40
2018-05-17T18:22:43.945Z,93.53
2018-05-17T18:25:12.848Z,93.18
2018-05-17T18:27:43.542Z,93.04
2018-05-17T18:30:12.393Z,93.19
2018-05-17T18:32:42.608Z,93.27
2018-05-17T18:35:12.435Z,92.88
2018-05-17T18:37:41.536Z,92.45
2018-05-17T18:40:11.454Z,92.51
2018-05-17T18:42:43.906Z,92.84
2018-05-17T18:45:13.908Z,92.07
2018-05-17T18:47:42.940Z,92.17
2018-05-17T18:50:13.570Z,92.21
2018-05-17T18:52:43.487Z,92.38
2018-05-17T18:55:12.477Z,92.06
2018-05-17T18:57:41.693Z,92.23
2018-05-17T19:03:42.903Z,94.58
2018-05-17T19:21:11.133Z,96.20
2018-05-17T19:23:41.006Z,96.20
2018-05-17T19:26:10.819Z,96.15
2018-05-17T19:28:39.974Z,97.87
2018-05-17T19:31:09.132Z,98.76
2018-05-17T19:33:39.044Z,99.79
2018-05-17T19:36:10.156Z,100.00
2018-05-17T19:38:40.024Z,100.00
2018-05-17T19:41:09.132Z,100.00
2018-05-17T19:43:39.775Z,100.00
2018-05-17T19:46:08.853Z,100.00
2018-05-17T19:48:38.980Z,100.00
2018-05-17T19:51:08.388Z,100.00
2018-05-17T19:53:37.587Z,100.00
2018-05-17T19:56:07.599Z,100.00
2018-05-17T19:58:39.571Z,100.00
2018-05-17T20:01:09.557Z,100.00
2018-05-17T20:03:38.674Z,100.00
2018-05-17T20:06:07.957Z,100.00
2018-05-17T20:08:37.072Z,100.00
2018-05-17T20:11:06.446Z,100.00
2018-05-17T20:16:10.823Z,100.00
2018-05-17T20:18:39.841Z,100.00
2018-05-17T20:21:09.674Z,100.00
2018-05-17T20:23:38.844Z,100.00
2018-05-17T20:26:07.819Z,100.00
2018-05-17T20:28:37.135Z,100.00
2018-05-17T20:31:06.141Z,100.00
2018-05-17T20:33:34.990Z,100.00
2018-05-17T20:38:41.232Z,100.00
2018-05-17T20:41:10.286Z,100.00
2018-05-17T20:43:40.707Z,100.00
2018-05-17T20:46:10.683Z,100.00
2018-05-17T20:48:40.744Z,100.00
2018-05-17T20:51:10.463Z,100.00
2018-05-17T20:53:41.297Z,100.00
2018-05-17T20:56:10.902Z,100.00
2018-05-17T20:58:40.871Z,100.00
2018-05-17T21:01:13.132Z,100.00
2018-05-17T21:03:42.335Z,100.00
2018-05-17T21:06:11.378Z,100.00
2018-05-17T21:08:40.685Z,100.00
2018-05-17T21:11:09.584Z,100.00
2018-05-17T21:13:39.357Z,100.00
2018-05-17T21:16:09.845Z,100.00
2018-05-17T21:18:39.057Z,100.00
2018-05-17T21:21:08.068Z,100.00
2018-05-17T21:23:38.748Z,100.00
2018-05-17T21:26:07.737Z,100.00
2018-05-17T21:28:39.593Z,100.00
2018-05-17T21:34:09.435Z,100.00
2018-05-17T21:36:38.372Z,100.00
2018-05-17T21:39:07.470Z,100.00
2018-05-17T21:41:36.381Z,100.00
2018-05-17T21:44:06.333Z,100.00
2018-05-17T21:46:36.046Z,100.00
2018-05-17T21:49:06.045Z,100.00
2018-05-17T21:51:34.995Z,100.00
2018-05-17T21:54:04.003Z,100.00
2018-05-17T21:59:08.583Z,100.00
2018-05-17T22:01:38.300Z,100.00
2018-05-17T22:04:07.612Z,100.00
2018-05-17T22:06:36.716Z,100.00
2018-05-17T22:09:06.674Z,100.00
2018-05-17T22:14:10.337Z,100.00
2018-05-17T22:16:39.642Z,100.00
2018-05-17T22:19:08.940Z,100.00
2018-05-17T22:21:37.867Z,100.00
2018-05-17T22:24:07.782Z,100.00
2018-05-17T22:26:37.819Z,100.00
2018-05-17T22:29:06.863Z,100.00
2018-05-17T22:31:35.913Z,100.00
2018-05-17T22:34:06.692Z,100.00
2018-05-17T22:36:35.570Z,100.00
2018-05-17T22:39:04.887Z,100.00
2018-05-17T22:41:34.913Z,100.00
2018-05-17T22:44:03.991Z,100.00
2018-05-17T22:46:33.539Z,100.00
2018-05-17T22:49:03.481Z,100.00
2018-05-17T22:51:32.614Z,100.00
2018-05-17T22:54:02.487Z,100.00
2018-05-17T22:56:44.434Z,100.00
2018-05-17T22:59:13.332Z,100.00
2018-05-17T23:01:43.245Z,100.00
2018-05-17T23:04:13.247Z,100.00
2018-05-17T23:06:42.569Z,100.00
2018-05-17T23:09:11.630Z,100.00
2018-05-17T23:11:42.398Z,100.00
2018-05-17T23:14:11.534Z,100.00
2018-05-17T23:16:41.406Z,100.00
2018-05-17T23:21:46.766Z,100.00
2018-05-17T23:24:16.730Z,100.00
2018-05-17T23:26:46.683Z,100.00
2018-05-17T23:29:16.549Z,100.00
2018-05-17T23:31:45.547Z,100.00
2018-05-17T23:34:15.348Z,100.00
2018-05-17T23:36:46.330Z,100.00
2018-05-17T23:39:15.468Z,100.00
2018-05-17T23:41:48.135Z,100.00
2018-05-17T23:44:17.183Z,100.00
2018-05-17T23:46:46.602Z,100.00
2018-05-17T23:49:15.531Z,100.00
2018-05-17T23:51:44.529Z,100.00
2018-05-17T23:54:13.718Z,100.00
2018-05-17T23:56:44.377Z,100.00
2018-05-17T23:59:13.352Z,100.00
